Time;durP1;ratioP1;P1;durP2;ratioP2;P2;SDS_P1;SDS_P2;PMS_P1;PMS_P2;Temp;Humidity;BMP_temperature;BMP_pressure;BME280_temperature;BME280_humidity;BME280_pressure;Samples;Min_cycle;Max_cycle;Signal;HPM_P1;HPM_P2
2020/12/06 00:01:57;;;;;;;69.80;29.30;;;7.10;63.60;;;;;;4949958;28;20563;-62
2020/12/06 00:04:27;;;;;;;74.95;28.20;;;7.10;63.60;;;;;;4946425;28;20034;-62
2020/12/06 00:06:52;;;;;;;73.28;29.55;;;7.10;63.60;;;;;;4949379;28;20055;-62
2020/12/06 00:09:18;;;;;;;63.85;28.35;;;7.10;63.60;;;;;;4950715;28;20426;-62
2020/12/06 00:11:44;;;;;;;66.95;29.65;;;7.10;63.60;;;;;;4945235;28;20326;-62
2020/12/06 00:14:09;;;;;;;67.15;28.92;;;7.10;63.60;;;;;;4953169;28;20039;-61
2020/12/06 00:16:35;;;;;;;66.78;30.25;;;7.10;63.50;;;;;;4946292;28;20500;-61
2020/12/06 00:19:01;;;;;;;79.03;29.38;;;7.00;63.50;;;;;;4949877;28;20428;-61
2020/12/06 00:21:29;;;;;;;69.63;29.92;;;7.00;64.20;;;;;;4942991;28;20035;-61
2020/12/06 00:23:54;;;;;;;73.15;28.58;;;7.00;63.60;;;;;;4948410;28;20043;-62
2020/12/06 00:26:21;;;;;;;71.10;28.60;;;6.90;63.50;;;;;;4945471;28;20294;-62
2020/12/06 00:28:48;;;;;;;72.22;28.45;;;6.90;63.60;;;;;;4945454;28;20104;-61
2020/12/06 00:31:14;;;;;;;77.40;29.75;;;6.90;64.30;;;;;;4945996;28;20031;-61
2020/12/06 00:33:40;;;;;;;69.53;27.23;;;6.80;63.40;;;;;;4946654;28;20041;-61
2020/12/06 00:36:09;;;;;;;63.70;26.85;;;6.80;63.50;;;;;;4944741;28;20070;-61
2020/12/06 00:38:36;;;;;;;64.30;25.48;;;6.80;63.60;;;;;;4949907;28;20078;-62
2020/12/06 00:41:01;;;;;;;64.60;27.80;;;6.80;63.60;;;;;;4944662;28;20035;-61
2020/12/06 00:43:27;;;;;;;60.65;27.35;;;6.80;63.60;;;;;;4941565;28;20046;-62
2020/12/06 00:45:52;;;;;;;64.88;27.65;;;6.80;63.60;;;;;;4944879;28;20058;-62
2020/12/06 00:48:18;;;;;;;59.58;25.50;;;6.80;63.70;;;;;;4944205;28;20117;-61
2020/12/06 00:50:44;;;;;;;62.45;26.13;;;6.80;63.60;;;;;;4948904;28;20121;-62
2020/12/06 00:53:09;;;;;;;65.78;26.17;;;6.90;63.40;;;;;;4942752;28;20043;-61
2020/12/06 00:55:35;;;;;;;65.35;28.00;;;6.90;63.40;;;;;;4950936;28;20053;-61
2020/12/06 00:58:00;;;;;;;70.68;27.98;;;6.90;63.40;;;;;;4952352;28;20035;-61
2020/12/06 01:00:27;;;;;;;64.60;26.05;;;6.90;63.50;;;;;;4939332;28;20105;-62
2020/12/06 01:02:52;;;;;;;74.25;29.05;;;6.90;63.50;;;;;;4949471;28;20419;-62
2020/12/06 01:05:18;;;;;;;65.10;28.05;;;6.90;63.60;;;;;;4951349;28;20046;-62
2020/12/06 01:07:44;;;;;;;80.13;28.40;;;6.90;63.70;;;;;;4945156;28;20050;-61
2020/12/06 01:10:11;;;;;;;73.35;28.92;;;6.90;63.70;;;;;;4948834;28;20088;-62
2020/12/06 01:12:38;;;;;;;77.18;29.27;;;6.90;64.50;;;;;;4953616;28;20042;-62
2020/12/06 01:15:06;;;;;;;72.30;28.35;;;7.00;63.70;;;;;;4942428;28;20496;-62
2020/12/06 01:17:32;;;;;;;70.03;28.20;;;7.00;63.70;;;;;;4949621;28;20747;-61
2020/12/06 01:19:57;;;;;;;64.97;28.23;;;7.00;63.70;;;;;;4949476;28;20042;-61
2020/12/06 01:22:23;;;;;;;68.93;27.38;;;7.00;63.80;;;;;;4953073;28;20129;-62
2020/12/06 01:24:48;;;;;;;67.03;28.38;;;7.00;63.80;;;;;;4955162;28;20050;-62
2020/12/06 01:27:15;;;;;;;73.28;28.77;;;7.00;64.50;;;;;;4952595;28;20107;-61
2020/12/06 01:29:41;;;;;;;73.70;27.92;;;7.00;63.80;;;;;;4951568;28;20043;-61
2020/12/06 01:32:07;;;;;;;71.97;29.08;;;7.00;63.90;;;;;;4950958;28;20045;-61
2020/12/06 01:34:32;;;;;;;74.88;29.27;;;7.00;64.00;;;;;;4957597;28;20172;-62
2020/12/06 01:36:58;;;;;;;73.63;28.92;;;7.00;64.00;;;;;;4956009;28;20027;-61
2020/12/06 01:39:24;;;;;;;68.15;29.20;;;7.00;64.00;;;;;;4950408;28;20744;-61
2020/12/06 01:41:56;;;;;;;68.68;28.50;;;7.00;63.90;;;;;;4949684;28;20046;-62
2020/12/06 01:44:24;;;;;;;68.03;29.15;;;7.00;63.80;;;;;;4950698;28;20039;-62
2020/12/06 01:46:51;;;;;;;73.18;30.05;;;7.00;63.70;;;;;;4945823;28;20133;-61
2020/12/06 01:49:20;;;;;;;80.55;30.13;;;7.00;63.80;;;;;;4951693;28;20652;-62
2020/12/06 01:51:48;;;;;;;79.57;31.27;;;7.00;64.00;;;;;;4949639;28;20131;-62
2020/12/06 01:54:13;;;;;;;83.00;29.00;;;7.00;64.00;;;;;;4947406;28;20031;-61
2020/12/06 01:56:39;;;;;;;71.78;28.70;;;7.00;64.00;;;;;;4949766;28;20035;-61
2020/12/06 01:59:05;;;;;;;75.28;28.98;;;7.00;64.00;;;;;;4950445;28;20034;-61
2020/12/06 02:01:30;;;;;;;74.80;30.17;;;7.00;64.60;;;;;;4950833;28;20530;-61
2020/12/06 02:03:56;;;;;;;82.63;30.27;;;7.00;63.90;;;;;;4950746;28;20162;-62
2020/12/06 02:06:24;;;;;;;76.53;29.50;;;7.10;64.00;;;;;;4953500;28;20035;-61
2020/12/06 02:08:50;;;;;;;76.88;30.85;;;7.10;63.30;;;;;;4950274;28;20388;-61
2020/12/06 02:11:36;;;;;;;74.32;29.40;;;7.10;64.00;;;;;;4951090;28;20049;-62
2020/12/06 02:14:02;;;;;;;78.07;29.95;;;7.20;64.00;;;;;;4948042;28;20046;-61
2020/12/06 02:16:27;;;;;;;71.80;30.13;;;7.20;63.80;;;;;;4948403;28;20031;-61
2020/12/06 02:18:53;;;;;;;74.35;30.98;;;7.20;63.90;;;;;;4946526;28;23443;-61
2020/12/06 02:21:19;;;;;;;75.30;31.55;;;7.30;63.90;;;;;;4953416;28;20112;-61
2020/12/06 02:23:44;;;;;;;82.75;30.58;;;7.30;63.90;;;;;;4948730;28;20039;-61
2020/12/06 02:26:10;;;;;;;77.95;30.45;;;7.30;63.90;;;;;;4958978;28;20512;-62
2020/12/06 02:28:35;;;;;;;77.20;30.80;;;7.30;63.90;;;;;;4946358;28;20500;-62
2020/12/06 02:31:01;;;;;;;82.47;32.40;;;7.30;63.90;;;;;;4949436;28;20576;-61
2020/12/06 02:33:27;;;;;;;83.63;31.05;;;7.30;63.90;;;;;;4946787;28;20034;-61
2020/12/06 02:35:52;;;;;;;80.65;31.75;;;7.30;63.90;;;;;;4946378;28;20035;-61
2020/12/06 02:38:18;;;;;;;86.00;31.70;;;7.30;63.90;;;;;;4949852;28;20562;-61
2020/12/06 02:40:43;;;;;;;81.32;33.03;;;7.30;63.90;;;;;;4946922;28;20165;-62
2020/12/06 02:43:09;;;;;;;83.28;33.13;;;7.30;63.80;;;;;;4949485;28;20538;-61
2020/12/06 02:45:35;;;;;;;87.32;32.67;;;7.30;63.90;;;;;;4950845;28;20154;-61
2020/12/06 02:48:00;;;;;;;85.40;33.50;;;7.30;63.90;;;;;;4954742;28;20054;-62
2020/12/06 02:50:27;;;;;;;85.20;31.83;;;7.30;64.00;;;;;;4947511;28;20073;-61
2020/12/06 02:52:57;;;;;;;84.75;31.98;;;7.30;64.00;;;;;;4947101;28;20235;-61
2020/12/06 02:55:27;;;;;;;90.10;31.15;;;7.30;64.00;;;;;;4950207;28;20042;-61
2020/12/06 02:57:52;;;;;;;95.13;34.35;;;7.20;64.10;;;;;;4951642;28;20038;-61
2020/12/06 03:00:18;;;;;;;86.80;32.88;;;7.20;64.10;;;;;;4948008;28;20050;-61
2020/12/06 03:02:44;;;;;;;88.90;34.08;;;7.30;64.30;;;;;;4947791;28;20620;-61
2020/12/06 03:05:10;;;;;;;88.63;32.63;;;7.20;64.20;;;;;;4942990;28;20054;-61
2020/12/06 03:07:35;;;;;;;85.50;31.73;;;7.20;64.40;;;;;;4946336;28;20047;-61
2020/12/06 03:10:06;;;;;;;91.28;33.60;;;7.30;64.50;;;;;;4949861;28;20085;-61
2020/12/06 03:12:35;;;;;;;86.75;32.03;;;7.30;64.40;;;;;;4943662;28;20043;-61
2020/12/06 03:15:01;;;;;;;87.25;32.25;;;7.30;64.40;;;;;;4945373;28;21574;-61
2020/12/06 03:17:27;;;;;;;86.63;31.73;;;7.30;64.40;;;;;;4947092;28;20051;-61
2020/12/06 03:19:52;;;;;;;85.75;32.85;;;7.30;64.40;;;;;;4947150;28;20069;-61
2020/12/06 03:22:18;;;;;;;92.78;32.70;;;7.30;64.40;;;;;;4949440;28;20046;-62
2020/12/06 03:24:43;;;;;;;87.07;32.50;;;7.40;64.60;;;;;;4954442;28;20051;-62
2020/12/06 03:27:11;;;;;;;87.22;33.40;;;7.40;64.60;;;;;;4944413;28;20050;-61
2020/12/06 03:29:37;;;;;;;90.38;33.28;;;7.40;64.60;;;;;;4948876;28;20047;-61
2020/12/06 03:32:03;;;;;;;88.30;33.05;;;7.40;64.60;;;;;;4949311;28;20464;-61
2020/12/06 03:34:28;;;;;;;83.88;33.75;;;7.40;64.60;;;;;;4949335;28;20043;-61
2020/12/06 03:36:54;;;;;;;86.90;32.55;;;7.40;64.60;;;;;;4952305;28;20171;-61
2020/12/06 03:39:20;;;;;;;80.57;32.05;;;7.40;64.60;;;;;;4943079;28;20094;-61
2020/12/06 03:41:45;;;;;;;79.40;32.25;;;7.40;64.60;;;;;;4947036;28;20518;-61
2020/12/06 03:44:11;;;;;;;79.07;31.73;;;7.40;64.60;;;;;;4948749;28;20042;-62
2020/12/06 03:46:37;;;;;;;78.88;30.60;;;7.40;64.50;;;;;;4945801;28;20050;-61
2020/12/06 03:49:03;;;;;;;81.13;31.40;;;7.40;64.60;;;;;;4942288;28;20089;-61
2020/12/06 03:51:28;;;;;;;88.03;34.03;;;7.40;64.60;;;;;;4949805;28;21411;-61
2020/12/06 03:53:54;;;;;;;78.03;32.40;;;7.40;64.50;;;;;;4947989;28;20046;-61
2020/12/06 03:56:20;;;;;;;80.85;32.47;;;7.40;64.40;;;;;;4945858;28;20512;-61
2020/12/06 03:58:45;;;;;;;87.13;34.63;;;7.40;64.40;;;;;;4945415;28;20043;-61
2020/12/06 04:01:11;;;;;;;84.90;34.53;;;7.40;64.40;;;;;;4947316;28;20444;-61
2020/12/06 04:03:37;;;;;;;89.45;34.70;;;7.40;64.40;;;;;;4943474;28;20061;-61
2020/12/06 04:06:03;;;;;;;91.60;35.20;;;7.40;64.40;;;;;;4941559;28;20487;-61
2020/12/06 04:08:28;;;;;;;82.60;35.55;;;7.40;64.40;;;;;;4949723;28;20152;-62
2020/12/06 04:10:54;;;;;;;79.40;33.47;;;7.40;64.40;;;;;;4943801;28;20479;-61
2020/12/06 04:13:20;;;;;;;89.63;35.22;;;7.40;64.30;;;;;;4945791;28;20987;-62
2020/12/06 04:15:46;;;;;;;84.35;33.83;;;7.50;64.40;;;;;;4947500;28;20448;-62
2020/12/06 04:18:12;;;;;;;88.32;33.20;;;7.50;64.30;;;;;;4952238;28;20121;-62
2020/12/06 04:20:37;;;;;;;87.47;34.90;;;7.60;64.40;;;;;;4949583;28;20047;-62
2020/12/06 04:23:03;;;;;;;82.05;32.38;;;7.60;64.30;;;;;;4946152;28;20400;-61
2020/12/06 04:25:29;;;;;;;79.70;34.50;;;7.60;64.20;;;;;;4953808;28;20041;-61
2020/12/06 04:27:54;;;;;;;89.00;33.38;;;7.60;64.10;;;;;;4946128;28;20908;-62
2020/12/06 04:30:20;;;;;;;81.05;32.67;;;7.60;64.10;;;;;;4943297;28;20643;-61
2020/12/06 04:32:46;;;;;;;79.55;34.08;;;7.70;64.20;;;;;;4946823;28;20038;-62
2020/12/06 04:35:13;;;;;;;77.82;32.17;;;7.70;64.10;;;;;;4948300;28;20066;-61
2020/12/06 04:37:39;;;;;;;79.65;32.03;;;7.60;64.00;;;;;;4953994;28;20049;-61
2020/12/06 04:40:05;;;;;;;78.20;31.83;;;7.70;64.10;;;;;;4947843;28;20039;-61
2020/12/06 04:42:32;;;;;;;80.93;32.83;;;7.60;64.00;;;;;;4945596;28;20042;-61
2020/12/06 04:44:59;;;;;;;75.50;31.80;;;7.70;64.20;;;;;;4943172;28;20046;-61
2020/12/06 04:47:51;;;;;;;69.15;30.60;;;7.70;64.20;;;;;;4944776;28;20043;-61
2020/12/06 04:50:48;;;;;;;80.07;32.50;;;7.70;64.20;;;;;;4942933;28;20038;-61
2020/12/06 04:53:17;;;;;;;75.07;30.73;;;7.70;64.20;;;;;;4950414;28;20117;-61
2020/12/06 04:55:49;;;;;;;76.00;32.38;;;7.70;64.10;;;;;;4954512;28;20443;-61
2020/12/06 04:58:19;;;;;;;73.50;31.73;;;7.80;64.10;;;;;;4953136;28;20046;-62
2020/12/06 05:00:45;;;;;;;85.38;33.28;;;7.80;64.10;;;;;;4953207;28;20098;-61
2020/12/06 05:03:12;;;;;;;88.32;35.42;;;7.80;64.00;;;;;;4949738;28;20051;-62
2020/12/06 05:05:41;;;;;;;83.07;32.85;;;7.80;64.10;;;;;;4945931;28;20527;-61
2020/12/06 05:08:10;;;;;;;76.32;33.15;;;7.80;64.10;;;;;;4954825;28;20039;-62
2020/12/06 05:13:10;;;;;;;73.72;32.42;;;7.80;64.80;;;;;;4965126;28;20054;-64
2020/12/06 05:15:36;;;;;;;74.07;31.83;;;7.90;64.20;;;;;;4983322;28;20057;-64
2020/12/06 05:18:02;;;;;;;76.68;31.50;;;7.90;64.00;;;;;;4969409;28;20573;-64
2020/12/06 05:20:28;;;;;;;74.75;32.17;;;7.90;64.00;;;;;;4971303;28;20750;-63
2020/12/06 05:22:54;;;;;;;70.93;31.88;;;7.90;63.90;;;;;;4975431;28;20058;-64
2020/12/06 05:25:21;;;;;;;74.25;31.42;;;7.90;63.90;;;;;;4966941;28;20775;-64
2020/12/06 05:27:47;;;;;;;69.35;30.40;;;7.90;63.30;;;;;;4986936;28;20097;-64
2020/12/06 05:30:12;;;;;;;69.57;30.90;;;8.00;64.60;;;;;;4967340;28;21432;-64
2020/12/06 05:32:38;;;;;;;68.60;30.85;;;8.00;63.90;;;;;;4964897;28;20091;-64
2020/12/06 05:35:05;;;;;;;76.20;30.85;;;8.00;64.60;;;;;;4969625;28;20054;-64
2020/12/06 05:37:31;;;;;;;71.95;30.63;;;8.00;63.80;;;;;;4964563;28;20046;-64
2020/12/06 05:40:11;;;;;;;64.30;29.92;;;8.00;63.90;;;;;;4962777;28;20050;-64
2020/12/06 05:42:41;;;;;;;67.68;29.90;;;8.00;63.90;;;;;;4968028;28;20101;-64
2020/12/06 05:45:09;;;;;;;61.58;29.15;;;8.00;63.80;;;;;;4966892;28;20038;-64
2020/12/06 05:47:35;;;;;;;63.67;28.98;;;8.00;63.90;;;;;;4967995;28;20532;-64
2020/12/06 05:50:01;;;;;;;67.38;28.80;;;8.00;63.90;;;;;;4967778;28;20050;-64
2020/12/06 05:52:31;;;;;;;67.07;29.73;;;7.90;63.80;;;;;;4967100;28;20042;-64
2020/12/06 05:54:58;;;;;;;65.40;30.83;;;7.90;63.90;;;;;;4963230;28;20050;-64
2020/12/06 05:57:26;;;;;;;64.35;29.55;;;8.00;63.90;;;;;;4969499;28;20039;-64
2020/12/06 05:59:55;;;;;;;65.22;28.65;;;8.00;63.90;;;;;;4964365;28;22380;-64
2020/12/06 06:02:22;;;;;;;67.53;28.27;;;8.00;63.90;;;;;;4965438;28;20038;-64
2020/12/06 06:04:49;;;;;;;63.38;29.13;;;8.00;63.90;;;;;;4964030;28;20154;-64
2020/12/06 06:07:21;;;;;;;58.17;27.58;;;8.00;63.90;;;;;;4966344;28;20058;-64
2020/12/06 06:10:02;;;;;;;65.22;29.50;;;7.90;63.80;;;;;;4970650;28;20121;-64
2020/12/06 06:12:47;;;;;;;60.15;28.75;;;8.00;63.90;;;;;;4973453;28;20042;-64
2020/12/06 06:15:13;;;;;;;61.90;27.88;;;7.90;63.80;;;;;;4970387;28;20046;-64
2020/12/06 06:17:42;;;;;;;59.65;28.23;;;8.00;63.90;;;;;;4968954;28;20416;-63
2020/12/06 06:20:08;;;;;;;61.97;28.25;;;7.90;64.20;;;;;;4967391;28;20112;-64
2020/12/06 06:22:38;;;;;;;57.47;27.98;;;8.00;63.90;;;;;;4968602;28;20125;-64
2020/12/06 06:25:05;;;;;;;59.30;27.55;;;8.00;64.00;;;;;;4973093;28;20088;-64
2020/12/06 06:27:40;;;;;;;65.22;29.67;;;8.00;63.80;;;;;;4969510;28;20038;-64
2020/12/06 06:30:10;;;;;;;58.58;28.00;;;8.00;63.80;;;;;;4964151;28;20100;-64
2020/12/06 06:32:37;;;;;;;60.92;28.33;;;8.00;63.80;;;;;;4970143;28;20046;-64
2020/12/06 06:35:05;;;;;;;63.22;28.48;;;8.10;63.80;;;;;;4971046;28;20077;-65
2020/12/06 06:37:32;;;;;;;59.90;28.75;;;8.00;63.80;;;;;;4964239;28;20115;-64
2020/12/06 06:40:00;;;;;;;58.42;27.90;;;8.00;63.80;;;;;;4972050;28;20066;-64
2020/12/06 06:42:27;;;;;;;56.33;28.63;;;8.10;63.90;;;;;;4977752;28;20043;-64
2020/12/06 06:45:16;;;;;;;58.20;26.63;;;8.10;63.90;;;;;;4975540;28;20074;-64
2020/12/06 06:47:42;;;;;;;53.40;27.25;;;8.10;63.80;;;;;;4972847;28;20073;-65
2020/12/06 06:50:10;;;;;;;60.38;29.50;;;8.10;63.80;;;;;;4976062;28;20550;-64
2020/12/06 06:52:41;;;;;;;55.58;27.20;;;8.00;64.10;;;;;;4975419;28;20061;-64
2020/12/06 06:55:07;;;;;;;62.08;29.58;;;8.10;63.80;;;;;;4971215;28;20120;-64
2020/12/06 06:57:33;;;;;;;59.42;28.00;;;8.00;63.80;;;;;;4968884;28;20039;-64
2020/12/06 07:00:00;;;;;;;61.50;27.52;;;8.00;63.80;;;;;;4967208;28;20049;-64
2020/12/06 07:02:35;;;;;;;61.60;28.83;;;8.00;64.00;;;;;;4969742;28;20046;-64
2020/12/06 07:05:11;;;;;;;57.42;27.95;;;8.00;64.00;;;;;;4974223;28;20038;-64
2020/12/06 07:07:40;;;;;;;53.83;26.73;;;8.00;63.90;;;;;;4969596;28;20054;-64
2020/12/06 07:10:08;;;;;;;55.38;28.20;;;8.00;64.00;;;;;;4971925;28;20057;-64
2020/12/06 07:13:00;;;;;;;56.47;26.42;;;7.90;63.90;;;;;;4972776;28;20057;-64
2020/12/06 07:15:28;;;;;;;56.45;28.38;;;8.00;64.00;;;;;;4974351;28;20031;-64
2020/12/06 07:17:55;;;;;;;57.50;27.13;;;7.90;64.00;;;;;;4969967;28;20052;-64
2020/12/06 07:20:24;;;;;;;53.85;27.70;;;7.90;64.00;;;;;;4972478;28;20531;-64
2020/12/06 07:22:50;;;;;;;59.88;28.95;;;8.00;64.10;;;;;;4970406;28;20036;-64
2020/12/06 07:25:17;;;;;;;61.10;29.50;;;8.00;64.10;;;;;;4973117;28;20100;-65
2020/12/06 07:27:43;;;;;;;57.67;28.15;;;8.00;64.00;;;;;;4968398;28;20039;-64
2020/12/06 07:30:16;;;;;;;61.60;29.67;;;8.00;64.00;;;;;;4973611;28;20034;-64
2020/12/06 07:32:42;;;;;;;63.58;30.55;;;8.00;64.00;;;;;;4975043;28;23358;-64
2020/12/06 07:35:10;;;;;;;61.63;29.10;;;8.00;64.10;;;;;;4970615;28;20411;-64
2020/12/06 07:37:36;;;;;;;58.03;28.45;;;8.10;64.20;;;;;;4963120;28;20046;-64
2020/12/06 07:40:10;;;;;;;61.97;28.85;;;8.10;64.20;;;;;;4972313;28;20034;-64
2020/12/06 07:42:37;;;;;;;66.63;29.60;;;8.10;64.20;;;;;;4968012;28;20140;-64
2020/12/06 07:45:05;;;;;;;63.63;30.00;;;8.10;64.20;;;;;;4968283;28;20084;-64
2020/12/06 07:47:31;;;;;;;63.45;31.13;;;8.20;64.20;;;;;;4968612;28;20043;-64
2020/12/06 07:49:59;;;;;;;63.65;30.13;;;8.20;64.20;;;;;;4969300;28;20502;-64
2020/12/06 07:52:34;;;;;;;59.42;29.40;;;8.20;64.20;;;;;;4969670;28;20050;-64
2020/12/06 07:55:02;;;;;;;66.65;31.00;;;8.30;64.20;;;;;;4967967;28;20045;-64
2020/12/06 07:57:50;;;;;;;62.97;29.73;;;8.30;64.10;;;;;;4965404;28;20510;-64
2020/12/06 08:00:19;;;;;;;63.20;29.77;;;8.40;64.10;;;;;;4968830;28;20039;-65
2020/12/06 08:02:56;;;;;;;60.00;29.98;;;8.40;64.00;;;;;;4970037;28;20042;-64
2020/12/06 08:05:26;;;;;;;61.08;29.50;;;8.40;64.00;;;;;;4970415;28;20050;-64
2020/12/06 08:07:57;;;;;;;59.75;28.92;;;8.40;64.00;;;;;;4969994;28;20057;-64
2020/12/06 08:10:26;;;;;;;56.53;28.73;;;8.40;63.80;;;;;;4967819;28;20062;-64
2020/12/06 08:12:54;;;;;;;56.15;27.10;;;8.50;63.80;;;;;;4973231;28;20049;-64
2020/12/06 08:15:24;;;;;;;58.92;27.60;;;8.50;63.80;;;;;;4968728;28;20043;-64
2020/12/06 08:17:51;;;;;;;61.38;29.20;;;8.50;63.70;;;;;;4967118;28;20408;-64
2020/12/06 08:20:18;;;;;;;60.40;28.10;;;8.50;64.10;;;;;;4964594;28;20051;-64
2020/12/06 08:22:57;;;;;;;61.30;30.27;;;8.60;63.70;;;;;;4960531;28;20046;-64
2020/12/06 08:25:24;;;;;;;66.10;30.10;;;8.60;63.70;;;;;;4963368;28;20065;-64
2020/12/06 08:27:51;;;;;;;56.00;27.95;;;8.60;63.70;;;;;;4960504;28;20510;-64
2020/12/06 08:30:23;;;;;;;56.35;29.17;;;8.60;63.60;;;;;;4964406;28;20042;-65
2020/12/06 08:32:50;;;;;;;63.05;29.75;;;8.60;63.60;;;;;;4964015;28;20047;-64
2020/12/06 08:35:15;;;;;;;61.63;29.05;;;8.60;63.60;;;;;;4971582;28;20414;-64
2020/12/06 08:37:42;;;;;;;59.60;28.33;;;8.60;63.60;;;;;;4968985;28;20046;-64
2020/12/06 08:40:07;;;;;;;66.55;30.80;;;8.70;63.70;;;;;;4972483;28;20050;-64
2020/12/06 08:42:33;;;;;;;62.22;28.73;;;8.70;63.60;;;;;;4971779;28;20097;-64
2020/12/06 08:45:00;;;;;;;65.90;30.83;;;8.70;63.60;;;;;;4965335;28;21289;-64
2020/12/06 08:47:43;;;;;;;67.07;30.20;;;8.70;63.70;;;;;;4969730;28;20534;-64
2020/12/06 08:50:15;;;;;;;71.57;32.53;;;8.70;63.80;;;;;;4970017;28;20042;-64
2020/12/06 08:52:42;;;;;;;69.95;32.17;;;8.70;63.70;;;;;;4971253;28;20189;-64
2020/12/06 08:55:28;;;;;;;66.47;32.35;;;8.70;63.70;;;;;;4969873;28;20889;-64
2020/12/06 08:57:54;;;;;;;74.55;33.17;;;8.70;63.80;;;;;;4972213;28;20100;-64
2020/12/06 09:00:20;;;;;;;71.63;32.05;;;8.70;63.80;;;;;;4965875;28;20042;-64
2020/12/06 09:02:46;;;;;;;72.88;32.33;;;8.70;64.00;;;;;;4968330;28;20041;-64
2020/12/06 09:05:12;;;;;;;79.10;34.00;;;8.70;64.00;;;;;;4975386;28;20034;-64
2020/12/06 09:07:41;;;;;;;73.80;33.42;;;8.80;64.10;;;;;;4969274;28;20046;-64
2020/12/06 09:10:08;;;;;;;76.38;35.45;;;8.80;64.10;;;;;;4973421;28;20042;-64
2020/12/06 09:12:36;;;;;;;72.60;33.20;;;8.90;64.20;;;;;;4969321;28;20052;-64
2020/12/06 09:15:06;;;;;;;73.20;32.50;;;8.90;64.20;;;;;;4962222;28;20046;-66
2020/12/06 09:17:32;;;;;;;79.22;35.22;;;9.00;64.20;;;;;;4970724;28;20069;-65
2020/12/06 09:19:57;;;;;;;76.55;34.20;;;9.00;64.20;;;;;;4968583;28;20542;-67
2020/12/06 09:22:23;;;;;;;80.45;34.47;;;9.10;64.10;;;;;;4970447;28;20070;-65
2020/12/06 09:24:49;;;;;;;81.82;35.38;;;9.10;64.00;;;;;;4971533;28;20031;-65
2020/12/06 09:27:14;;;;;;;76.50;33.35;;;9.20;64.00;;;;;;4967992;28;20079;-64
2020/12/06 09:29:40;;;;;;;78.57;34.25;;;9.20;63.90;;;;;;4976441;28;20042;-64
2020/12/06 09:32:05;;;;;;;73.53;32.92;;;9.30;63.90;;;;;;4967029;28;20058;-64
2020/12/06 09:34:31;;;;;;;72.95;33.92;;;9.30;63.80;;;;;;4962930;28;20483;-68
2020/12/06 09:36:57;;;;;;;86.93;34.58;;;9.30;63.60;;;;;;4983381;28;20087;-65
2020/12/06 09:39:22;;;;;;;79.65;33.88;;;9.40;63.60;;;;;;4969707;28;20049;-65
2020/12/06 09:41:48;;;;;;;78.57;35.60;;;9.40;63.50;;;;;;4971542;28;20050;-64
2020/12/06 09:44:13;;;;;;;79.13;35.95;;;9.40;63.50;;;;;;4983680;28;20031;-64
2020/12/06 09:46:39;;;;;;;81.30;35.20;;;9.40;63.50;;;;;;4960757;28;20038;-64
2020/12/06 09:49:05;;;;;;;81.40;35.83;;;9.40;63.50;;;;;;4963996;28;20049;-64
2020/12/06 09:51:30;;;;;;;84.15;35.58;;;9.40;63.50;;;;;;4962618;28;21053;-64
2020/12/06 09:53:56;;;;;;;89.45;37.22;;;9.40;63.50;;;;;;4962306;28;20035;-64
2020/12/06 09:56:27;;;;;;;84.30;36.45;;;9.40;63.60;;;;;;4962500;28;20149;-64
2020/12/06 09:58:52;;;;;;;88.65;36.60;;;9.40;63.60;;;;;;4961438;28;20707;-64
2020/12/06 10:01:18;;;;;;;88.10;36.72;;;9.50;63.70;;;;;;4952218;28;20219;-64
2020/12/06 10:03:43;;;;;;;90.43;37.53;;;9.40;63.60;;;;;;4960673;28;20050;-64
2020/12/06 10:06:09;;;;;;;92.97;37.63;;;9.50;63.70;;;;;;4958001;28;21701;-64
2020/12/06 10:08:34;;;;;;;90.63;36.67;;;9.40;63.80;;;;;;4964387;28;20082;-64
2020/12/06 10:11:00;;;;;;;93.90;37.90;;;9.50;63.90;;;;;;4956166;28;20046;-64
2020/12/06 10:13:26;;;;;;;90.38;38.55;;;9.50;63.90;;;;;;4961977;28;20074;-64
2020/12/06 10:15:51;;;;;;;93.20;37.08;;;9.50;63.80;;;;;;4963110;28;20511;-64
2020/12/06 10:18:17;;;;;;;83.78;37.63;;;9.50;63.80;;;;;;4961043;28;20046;-64
2020/12/06 10:20:42;;;;;;;95.32;37.72;;;9.50;63.80;;;;;;4962084;28;20585;-64
2020/12/06 10:23:08;;;;;;;91.78;38.70;;;9.50;63.90;;;;;;4966987;28;20050;-64
2020/12/06 10:25:34;;;;;;;93.90;37.67;;;9.50;63.90;;;;;;4967896;28;20987;-68
2020/12/06 10:27:59;;;;;;;92.72;37.03;;;9.50;64.00;;;;;;4963146;28;20050;-67
2020/12/06 10:30:25;;;;;;;102.32;39.28;;;9.50;64.00;;;;;;4964709;28;20046;-65
2020/12/06 10:32:50;;;;;;;91.55;37.42;;;9.50;64.70;;;;;;4953168;28;20049;-64
2020/12/06 10:35:16;;;;;;;93.35;36.88;;;9.60;64.00;;;;;;4960925;28;20046;-64
2020/12/06 10:37:42;;;;;;;93.28;40.08;;;9.60;63.90;;;;;;4960281;28;20042;-64
2020/12/06 10:40:07;;;;;;;93.28;38.53;;;9.60;64.00;;;;;;4967577;28;20138;-64
2020/12/06 10:42:33;;;;;;;98.97;41.15;;;9.60;64.00;;;;;;4968702;28;20125;-64
2020/12/06 10:44:58;;;;;;;92.60;38.20;;;9.60;64.00;;;;;;4963103;28;20045;-64
2020/12/06 10:47:24;;;;;;;95.38;39.25;;;9.60;64.00;;;;;;4966664;28;20046;-64
2020/12/06 10:49:50;;;;;;;103.18;40.50;;;9.70;64.10;;;;;;4964012;28;20066;-64
2020/12/06 10:52:15;;;;;;;92.80;38.30;;;9.70;64.10;;;;;;4952696;28;20073;-64
2020/12/06 10:54:41;;;;;;;94.55;39.05;;;9.60;64.00;;;;;;4951563;28;20794;-64
2020/12/06 10:57:07;;;;;;;99.07;39.55;;;9.70;64.20;;;;;;4958484;28;20096;-64
2020/12/06 10:59:35;;;;;;;87.68;38.72;;;9.60;64.10;;;;;;4963092;28;20077;-64
2020/12/06 11:02:01;;;;;;;103.80;39.05;;;9.70;64.20;;;;;;4963869;28;20054;-64
2020/12/06 11:04:26;;;;;;;105.47;40.05;;;9.70;64.20;;;;;;4962805;28;20463;-64
2020/12/06 11:06:52;;;;;;;98.72;40.55;;;9.70;64.10;;;;;;4965152;28;20042;-64
2020/12/06 11:09:18;;;;;;;102.03;39.00;;;9.70;64.80;;;;;;4961716;28;20042;-64
2020/12/06 11:11:43;;;;;;;96.00;38.10;;;9.70;64.10;;;;;;4979235;23;20062;-61
2020/12/06 11:14:09;;;;;;;99.85;39.78;;;9.70;64.10;;;;;;4978456;28;20033;-61
2020/12/06 11:16:34;;;;;;;104.10;39.58;;;9.70;64.20;;;;;;4977785;28;20105;-61
2020/12/06 11:19:00;;;;;;;102.18;40.00;;;9.70;64.20;;;;;;4976086;28;20042;-60
2020/12/06 11:21:28;;;;;;;102.53;40.80;;;9.70;64.20;;;;;;4978354;28;20045;-61
2020/12/06 11:23:55;;;;;;;100.35;40.42;;;9.70;64.20;;;;;;4962742;28;20126;-61
2020/12/06 11:26:21;;;;;;;106.18;40.85;;;9.70;64.20;;;;;;4973719;28;20272;-61
2020/12/06 11:28:47;;;;;;;108.95;40.72;;;9.70;64.30;;;;;;4967913;28;20430;-61
2020/12/06 11:31:13;;;;;;;105.03;40.85;;;9.70;64.30;;;;;;4962720;28;20112;-61
2020/12/06 11:33:39;;;;;;;116.22;43.00;;;9.80;64.30;;;;;;4954756;28;20125;-61
2020/12/06 11:36:05;;;;;;;100.97;40.03;;;9.80;64.60;;;;;;4963397;28;20080;-62
2020/12/06 11:38:31;;;;;;;107.90;41.08;;;9.80;64.20;;;;;;4956981;28;20081;-61
2020/12/06 11:40:57;;;;;;;111.88;40.13;;;9.80;64.30;;;;;;4952987;28;20053;-61
2020/12/06 11:43:23;;;;;;;123.85;41.58;;;9.80;64.30;;;;;;4970769;28;20034;-61
2020/12/06 11:45:49;;;;;;;109.13;43.05;;;9.80;64.30;;;;;;4961699;28;20038;-62
2020/12/06 11:48:15;;;;;;;116.45;42.30;;;9.90;64.40;;;;;;4959741;28;20046;-62
2020/12/06 11:50:40;;;;;;;111.88;41.00;;;9.90;64.40;;;;;;4967212;28;20573;-61
2020/12/06 11:53:06;;;;;;;117.85;41.42;;;9.90;64.40;;;;;;4958805;28;20845;-61
2020/12/06 11:55:32;;;;;;;123.50;42.35;;;9.90;65.30;;;;;;4966646;28;20244;-61
2020/12/06 11:57:57;;;;;;;120.93;41.90;;;10.00;64.80;;;;;;4970423;28;20339;-62
2020/12/06 12:00:23;;;;;;;121.60;43.33;;;10.00;64.60;;;;;;4965507;28;20104;-61
2020/12/06 12:02:49;;;;;;;130.20;43.05;;;10.00;65.50;;;;;;4966808;28;20506;-61
2020/12/06 12:05:17;;;;;;;123.28;42.67;;;10.00;64.80;;;;;;4961725;28;20772;-61
2020/12/06 12:07:43;;;;;;;138.80;45.10;;;10.10;64.80;;;;;;4965772;28;20503;-61
2020/12/06 12:10:08;;;;;;;127.50;44.38;;;10.10;64.80;;;;;;4977514;28;20057;-61
2020/12/06 12:12:35;;;;;;;142.63;45.70;;;10.20;64.80;;;;;;4971918;28;20053;-61
2020/12/06 12:15:01;;;;;;;131.50;43.15;;;10.20;64.80;;;;;;4961617;28;20478;-61
2020/12/06 12:17:26;;;;;;;127.05;45.00;;;10.20;64.70;;;;;;4969488;28;20050;-61
2020/12/06 12:19:52;;;;;;;132.60;43.67;;;10.20;64.60;;;;;;4969681;28;20034;-61
2020/12/06 12:22:20;;;;;;;131.00;44.58;;;10.30;64.70;;;;;;4981088;28;20050;-61
2020/12/06 12:24:49;;;;;;;135.63;43.03;;;10.30;64.60;;;;;;4969462;28;20041;-61
2020/12/06 12:27:15;;;;;;;133.73;44.28;;;10.30;64.60;;;;;;4956941;28;20045;-61
2020/12/06 12:29:40;;;;;;;139.70;45.08;;;10.30;64.70;;;;;;4972354;28;20035;-61
2020/12/06 12:32:06;;;;;;;135.35;44.17;;;10.40;64.80;;;;;;4971750;28;20077;-61
2020/12/06 12:34:31;;;;;;;133.15;46.30;;;10.40;64.80;;;;;;4977388;28;20127;-62
2020/12/06 12:36:57;;;;;;;143.23;45.38;;;10.40;64.70;;;;;;4976258;28;20046;-61
2020/12/06 12:39:23;;;;;;;148.63;47.35;;;10.40;64.80;;;;;;4964998;28;20041;-61